Time;durP1;ratioP1;P1;durP2;ratioP2;P2;SDS_P1;SDS_P2;PMS_P1;PMS_P2;Temp;Humidity;BMP_temperature;BMP_pressure;BME280_temperature;BME280_humidity;BME280_pressure;Samples;Min_cycle;Max_cycle;Signal;HPM_P1;HPM_P2
2022/01/08 00:02:12;;;;;;;2.05;1.27;;;;;;;-3.38;59.91;99597.72;6124617;23;20018;-77
2022/01/08 00:04:38;;;;;;;4.07;1.63;;;;;;;-3.55;59.68;99568.13;6135769;23;20020;-78
2022/01/08 00:07:04;;;;;;;1.70;1.13;;;;;;;-3.35;60.03;99605.50;6127266;23;20026;-81
2022/01/08 00:09:30;;;;;;;2.38;1.30;;;;;;;-3.41;59.74;99615.41;6075993;23;20033;-79
2022/01/08 00:11:56;;;;;;;2.03;1.23;;;;;;;-3.44;60.14;99622.03;6076939;23;20056;-78
2022/01/08 00:14:23;;;;;;;2.20;1.38;;;;;;;-3.58;59.61;99608.69;6100938;23;20108;-76
2022/01/08 00:16:49;;;;;;;1.88;1.20;;;;;;;-3.55;58.86;99634.28;6126341;23;20042;-79
2022/01/08 00:19:14;;;;;;;1.63;1.10;;;;;;;-3.72;59.99;99587.72;6076722;23;20021;-77
2022/01/08 00:21:40;;;;;;;2.17;1.40;;;;;;;-3.51;59.92;99621.75;6087129;23;20024;-75
2022/01/08 00:24:06;;;;;;;3.17;1.75;;;;;;;-3.49;59.71;99632.00;6088054;23;20022;-74
2022/01/08 00:26:32;;;;;;;2.33;1.20;;;;;;;-3.63;59.40;99611.91;6107632;23;20069;-76
2022/01/08 00:28:59;;;;;;;2.08;1.30;;;;;;;-3.51;59.73;99646.34;6124200;23;20025;-79
2022/01/08 00:31:25;;;;;;;1.85;1.17;;;;;;;-3.54;59.61;99641.09;6124031;23;20097;-79
2022/01/08 00:33:52;;;;;;;2.33;1.20;;;;;;;-3.52;59.77;99657.31;6124687;23;20022;-77
2022/01/08 00:36:17;;;;;;;1.70;1.40;;;;;;;-3.54;59.59;99662.34;6050826;23;20024;-78
2022/01/08 00:38:43;;;;;;;2.17;1.20;;;;;;;-3.65;59.22;99651.69;6124444;23;20022;-80
2022/01/08 00:41:09;;;;;;;2.88;1.50;;;;;;;-3.57;59.29;99661.31;6099133;23;20448;-77
2022/01/08 00:43:35;;;;;;;3.85;1.38;;;;;;;-3.54;59.49;99653.81;6103394;23;20017;-75
2022/01/08 00:46:01;;;;;;;1.52;1.30;;;;;;;-3.55;59.35;99667.34;6092945;23;20041;-76
2022/01/08 00:48:27;;;;;;;2.83;1.42;;;;;;;-3.64;59.00;99655.94;6104295;23;20344;-76
2022/01/08 00:50:52;;;;;;;2.63;1.40;;;;;;;-3.53;59.15;99676.78;6099101;23;20017;-76
2022/01/08 00:53:19;;;;;;;2.20;1.30;;;;;;;-3.62;58.95;99663.66;6074710;23;20367;-78
2022/01/08 00:55:45;;;;;;;2.40;1.52;;;;;;;-3.43;59.33;99683.19;6123606;23;20080;-75
2022/01/08 00:58:11;;;;;;;2.17;1.25;;;;;;;-3.37;59.13;99683.44;6074285;23;20014;-78
2022/01/08 01:00:37;;;;;;;2.38;1.10;;;;;;;-3.42;58.81;99679.81;6124557;23;20018;-78
2022/01/08 01:03:03;;;;;;;3.65;1.50;;;;;;;-3.37;58.71;99687.69;6124679;23;20385;-80
2022/01/08 01:05:29;;;;;;;1.85;1.42;;;;;;;-3.28;59.17;99692.31;6100509;23;20025;-78
2022/01/08 01:07:56;;;;;;;1.77;1.20;;;;;;;-3.34;58.21;99700.56;6135654;23;20025;-78
2022/01/08 01:10:22;;;;;;;1.55;1.00;;;;;;;-3.41;58.67;99706.16;6105669;23;20021;-78
2022/01/08 01:12:47;;;;;;;2.00;1.20;;;;;;;-3.44;58.60;99689.09;6135789;23;20022;-73
2022/01/08 01:15:16;;;;;;;2.15;1.10;;;;;;;-3.37;58.12;99711.44;6135420;23;20025;-76
2022/01/08 01:17:44;;;;;;;1.80;1.17;;;;;;;-3.41;58.29;99717.19;6111113;23;20020;-74
2022/01/08 01:20:13;;;;;;;3.05;1.40;;;;;;;-3.48;58.44;99717.72;6136320;23;20018;-75
2022/01/08 01:25:10;;;;;;;2.08;1.40;;;;;;;-3.48;58.22;99715.19;6110064;23;20018;-76
2022/01/08 01:41:04;;;;;;;1.73;1.23;;;;;;;-3.41;58.70;99721.41;6104415;23;20029;-75
2022/01/08 01:47:02;;;;;;;2.22;1.42;;;;;;;-3.18;57.91;99760.63;6149882;23;20025;-75
2022/01/08 01:49:41;;;;;;;2.40;1.30;;;;;;;-3.12;57.82;99755.84;6135091;23;20021;-79
2022/01/08 01:52:09;;;;;;;2.00;1.25;;;;;;;-3.09;57.73;99773.81;6102771;23;20372;-77
2022/01/08 01:54:36;;;;;;;1.73;1.10;;;;;;;-3.22;57.57;99757.09;6132370;23;20022;-75
2022/01/08 01:57:03;;;;;;;2.42;1.17;;;;;;;-3.24;57.16;99760.38;6120552;23;20058;-78
2022/01/08 01:59:30;;;;;;;1.83;1.23;;;;;;;-3.16;57.20;99786.19;6101667;23;20141;-77
2022/01/08 02:01:57;;;;;;;1.45;1.13;;;;;;;-3.23;57.07;99770.63;6125674;23;20018;-75
2022/01/08 02:04:23;;;;;;;1.75;1.30;;;;;;;-3.22;56.96;99789.31;6124628;23;20123;-77
2022/01/08 02:06:49;;;;;;;2.03;1.42;;;;;;;-3.15;57.53;99785.38;6098419;23;20054;-76
2022/01/08 02:09:15;;;;;;;2.90;1.27;;;;;;;-3.16;57.08;99788.72;6124867;23;20464;-76
2022/01/08 02:12:00;;;;;;;2.38;1.30;;;;;;;-3.06;57.00;99804.50;6124969;23;20100;-78
2022/01/08 02:14:28;;;;;;;2.70;1.20;;;;;;;-3.07;57.14;99799.31;6100309;23;20081;-77
2022/01/08 02:16:54;;;;;;;1.55;1.13;;;;;;;-3.05;56.98;99810.44;6106812;23;20026;-73
2022/01/08 02:19:20;;;;;;;1.83;1.40;;;;;;;-3.06;56.84;99818.88;6128911;23;20017;-77
2022/01/08 02:21:55;;;;;;;2.10;1.10;;;;;;;-3.16;57.42;99799.78;6125300;23;20022;-76
2022/01/08 02:24:22;;;;;;;1.30;1.00;;;;;;;-3.03;57.11;99822.47;6076244;23;20025;-77
2022/01/08 02:26:48;;;;;;;1.50;1.13;;;;;;;-3.14;57.11;99810.91;6076613;23;20116;-74
2022/01/08 02:29:16;;;;;;;1.77;1.10;;;;;;;-3.06;56.94;99839.25;6106249;23;20022;-75
2022/01/08 02:31:55;;;;;;;2.42;1.40;;;;;;;-2.97;57.59;99834.59;6127980;23;20369;-78
2022/01/08 02:34:22;;;;;;;1.48;1.05;;;;;;;-2.93;57.02;99831.41;6126526;23;20017;-76
2022/01/08 02:36:47;;;;;;;3.53;1.55;;;;;;;-2.91;56.79;99845.09;6051836;23;20452;-76
2022/01/08 02:39:13;;;;;;;3.03;1.50;;;;;;;-2.90;56.96;99841.75;6126105;23;20097;-75
2022/01/08 02:41:40;;;;;;;1.95;1.30;;;;;;;-2.91;57.17;99850.19;6075779;23;20733;-74
2022/01/08 02:44:06;;;;;;;2.95;1.95;;;;;;;-2.87;57.18;99853.72;6125793;23;20072;-76
2022/01/08 02:46:32;;;;;;;3.28;1.42;;;;;;;-3.02;57.22;99823.31;6098993;23;20456;-78
2022/01/08 02:48:58;;;;;;;2.67;1.52;;;;;;;-3.07;57.08;99838.41;6099116;23;20017;-78
2022/01/08 02:51:24;;;;;;;1.60;1.20;;;;;;;-2.91;57.11;99862.03;6099181;23;20500;-78
2022/01/08 02:53:51;;;;;;;2.10;1.33;;;;;;;-3.04;57.18;99855.47;6126101;23;20017;-76
2022/01/08 02:56:16;;;;;;;2.42;1.10;;;;;;;-2.94;56.61;99880.59;6099246;23;20053;-75
2022/01/08 02:58:42;;;;;;;2.45;1.33;;;;;;;-2.98;57.08;99877.84;6098811;23;20372;-76
2022/01/08 03:01:08;;;;;;;1.88;1.30;;;;;;;-3.03;56.89;99867.41;6099159;23;20036;-75
2022/01/08 03:03:34;;;;;;;1.95;1.38;;;;;;;-2.83;56.72;99898.03;6124603;23;20105;-77
2022/01/08 03:05:59;;;;;;;2.72;1.50;;;;;;;-2.96;56.93;99884.75;6112444;23;20050;-75
2022/01/08 03:08:26;;;;;;;1.67;1.25;;;;;;;-2.89;57.27;99914.81;6135550;23;20021;-76
2022/01/08 03:10:53;;;;;;;1.33;1.20;;;;;;;-2.88;57.14;99910.56;6123586;23;20022;-77
2022/01/08 03:13:19;;;;;;;2.55;1.45;;;;;;;-3.03;56.90;99887.78;6098629;23;20176;-77
2022/01/08 03:15:45;;;;;;;2.88;1.40;;;;;;;-2.89;57.19;99919.00;6098626;23;20069;-75
2022/01/08 03:18:11;;;;;;;1.70;1.25;;;;;;;-2.83;56.89;99914.22;6099579;23;20017;-75
2022/01/08 03:20:46;;;;;;;4.40;1.40;;;;;;;-2.82;57.09;99923.59;6124896;23;20030;-77
2022/01/08 03:23:16;;;;;;;1.33;1.10;;;;;;;-2.77;57.01;99928.91;6125329;23;20049;-78
2022/01/08 03:25:43;;;;;;;2.75;1.40;;;;;;;-2.78;56.96;99937.34;6099313;23;20026;-80
2022/01/08 03:28:08;;;;;;;1.75;1.20;;;;;;;-2.92;56.96;99926.50;6099114;23;20021;-77
2022/01/08 03:30:34;;;;;;;1.98;1.00;;;;;;;-2.93;57.11;99928.19;6075789;23;20021;-78
2022/01/08 03:33:01;;;;;;;2.35;1.30;;;;;;;-2.93;57.16;99930.72;6124809;23;20021;-78
2022/01/08 03:35:27;;;;;;;1.67;1.17;;;;;;;-2.88;57.37;99926.72;6101183;23;20032;-80
2022/01/08 03:37:52;;;;;;;2.65;1.20;;;;;;;-2.80;57.20;99933.84;6099785;23;20014;-75
2022/01/08 03:40:18;;;;;;;2.88;1.20;;;;;;;-2.81;57.00;99930.44;6098537;23;20072;-75
2022/01/08 03:42:44;;;;;;;1.70;1.25;;;;;;;-2.79;57.32;99940.69;6124133;23;20325;-77
2022/01/08 03:45:11;;;;;;;1.73;1.38;;;;;;;-2.97;57.63;99917.75;6122561;23;20476;-75
2022/01/08 03:50:23;;;;;;;2.63;1.60;;;;;;;-2.63;57.59;99949.94;6097334;23;20104;-77
2022/01/08 03:52:50;;;;;;;3.33;1.73;;;;;;;-2.73;57.63;99938.44;6124782;23;20085;-78
2022/01/08 03:55:16;;;;;;;2.55;1.75;;;;;;;-2.72;57.24;99942.72;6098978;23;20101;-77
2022/01/08 03:57:41;;;;;;;4.25;1.75;;;;;;;-2.81;57.17;99943.19;6098236;23;20041;-76
2022/01/08 04:00:08;;;;;;;2.63;1.30;;;;;;;-2.82;57.49;99958.38;6123532;23;20069;-79
2022/01/08 04:02:38;;;;;;;2.55;1.63;;;;;;;-2.93;57.23;99956.19;6123987;23;20026;-76
2022/01/08 04:05:04;;;;;;;3.60;1.27;;;;;;;-3.03;57.27;99962.53;6122593;23;20415;-76
2022/01/08 04:07:30;;;;;;;2.63;1.50;;;;;;;-3.08;57.43;99961.41;6122428;23;20044;-78
2022/01/08 04:09:56;;;;;;;2.70;1.33;;;;;;;-3.07;57.76;99975.91;6123442;23;20045;-76
2022/01/08 04:12:32;;;;;;;2.92;1.67;;;;;;;-3.27;57.34;99961.31;6098647;23;20025;-78
2022/01/08 04:15:06;;;;;;;2.78;1.60;;;;;;;-3.18;57.98;99977.03;6129598;23;20097;-78
2022/01/08 04:17:32;;;;;;;3.15;1.42;;;;;;;-3.25;57.98;99975.88;6093900;23;20010;-77
2022/01/08 04:19:58;;;;;;;3.55;1.50;;;;;;;-3.51;57.83;99933.84;6077664;23;20040;-78
2022/01/08 04:22:25;;;;;;;2.90;1.58;;;;;;;-3.24;58.05;99989.47;6100639;23;20018;-75
2022/01/08 04:24:52;;;;;;;3.47;1.38;;;;;;;-3.20;58.15;100001.56;6126594;23;20100;-75
2022/01/08 04:27:17;;;;;;;1.42;1.20;;;;;;;-3.21;58.13;99995.59;6075312;23;20021;-77
2022/01/08 04:29:43;;;;;;;2.75;1.35;;;;;;;-3.39;57.84;99967.53;6106425;23;20081;-75
2022/01/08 04:32:09;;;;;;;2.67;1.60;;;;;;;-3.35;58.42;99964.34;6099814;23;20065;-80
2022/01/08 04:34:35;;;;;;;3.28;1.48;;;;;;;-3.26;58.50;99963.94;6098305;23;20021;-81
2022/01/08 04:37:01;;;;;;;4.72;1.80;;;;;;;-3.16;58.06;99969.50;6100550;23;20116;-79
2022/01/08 04:39:27;;;;;;;2.85;1.45;;;;;;;-3.05;58.68;99992.13;6104756;23;20037;-76
2022/01/08 04:41:57;;;;;;;2.08;1.20;;;;;;;-3.15;58.33;99974.63;6115028;23;20018;-76
2022/01/08 04:44:22;;;;;;;1.50;1.10;;;;;;;-2.99;58.61;100009.38;6138067;23;20028;-77
2022/01/08 04:46:48;;;;;;;1.90;1.30;;;;;;;-3.23;58.62;99964.09;6104009;23;20018;-81
2022/01/08 04:49:14;;;;;;;1.98;1.10;;;;;;;-3.07;58.51;99986.09;6098415;23;20071;-77
2022/01/08 04:51:40;;;;;;;4.63;1.52;;;;;;;-3.05;58.38;99997.22;6124266;23;20109;-77
2022/01/08 04:54:05;;;;;;;2.88;1.27;;;;;;;-3.05;58.62;100007.41;6124137;23;20064;-78
2022/01/08 04:56:32;;;;;;;1.77;1.20;;;;;;;-3.04;58.68;100000.63;6125310;23;20018;-77
2022/01/08 04:58:58;;;;;;;2.13;1.42;;;;;;;-2.97;58.68;100007.78;6098127;23;20017;-77
2022/01/08 05:01:24;;;;;;;2.75;1.38;;;;;;;-2.83;58.87;100023.75;6124215;23;20556;-80
2022/01/08 05:03:50;;;;;;;1.95;1.10;;;;;;;-2.72;58.37;100037.84;6099059;23;20041;-79
2022/01/08 05:06:16;;;;;;;2.25;1.58;;;;;;;-2.88;58.61;100007.34;6123474;23;20456;-77
2022/01/08 05:08:42;;;;;;;4.43;1.30;;;;;;;-2.73;59.12;100018.28;6124317;23;20021;-77
2022/01/08 05:11:08;;;;;;;2.20;1.17;;;;;;;-2.54;58.90;100044.66;6075594;23;20494;-77
2022/01/08 05:13:34;;;;;;;2.53;1.50;;;;;;;-2.73;58.97;100012.31;6104476;23;20478;-79
2022/01/08 05:16:00;;;;;;;2.17;1.45;;;;;;;-2.60;58.95;100040.13;6098081;23;20018;-76
2022/01/08 05:18:31;;;;;;;2.25;1.60;;;;;;;-2.69;58.59;100033.72;6098970;23;20021;-78
2022/01/08 05:21:09;;;;;;;2.78;1.40;;;;;;;-2.49;59.15;100067.81;6125751;23;20104;-79
2022/01/08 05:23:38;;;;;;;4.78;1.40;;;;;;;-2.57;58.80;100070.00;6102738;23;20374;-77
2022/01/08 05:26:03;;;;;;;1.95;1.20;;;;;;;-2.73;58.64;100053.94;6087144;23;20018;-75
2022/01/08 05:28:29;;;;;;;1.98;1.30;;;;;;;-3.10;58.39;100016.50;6117731;23;20387;-78
2022/01/08 05:30:55;;;;;;;2.92;1.25;;;;;;;-2.78;59.19;100077.44;6056251;23;20017;-78
2022/01/08 05:33:21;;;;;;;4.30;1.50;;;;;;;-3.11;58.63;100031.69;6107560;23;20013;-79
2022/01/08 05:35:47;;;;;;;3.97;1.40;;;;;;;-2.98;59.30;100062.06;6108676;23;20079;-77
2022/01/08 05:38:13;;;;;;;2.25;1.42;;;;;;;-3.09;58.68;100041.16;6105537;23;20013;-78
2022/01/08 05:40:39;;;;;;;2.85;1.40;;;;;;;-2.78;58.89;100092.75;6107266;23;20024;-75
2022/01/08 05:43:04;;;;;;;2.33;1.38;;;;;;;-2.81;58.94;100080.72;6134736;23;20028;-75
2022/01/08 05:45:30;;;;;;;2.65;1.40;;;;;;;-2.79;58.62;100088.44;6127459;23;20018;-78
2022/01/08 05:47:56;;;;;;;3.22;1.60;;;;;;;-2.90;58.91;100082.81;6122638;23;20014;-76
2022/01/08 05:50:22;;;;;;;2.53;1.50;;;;;;;-2.77;58.96;100097.94;6122831;23;20036;-76
2022/01/08 05:52:48;;;;;;;2.70;1.65;;;;;;;-2.85;59.13;100083.03;6099663;23;20021;-79
2022/01/08 05:55:15;;;;;;;4.60;1.60;;;;;;;-2.74;58.79;100108.25;6124392;23;20100;-77
2022/01/08 05:57:41;;;;;;;6.80;1.35;;;;;;;-2.75;59.01;100113.28;6075729;23;20145;-79
2022/01/08 06:00:09;;;;;;;3.55;1.55;;;;;;;-2.92;59.12;100110.75;6124521;23;20435;-79
2022/01/08 06:02:36;;;;;;;2.72;1.40;;;;;;;-2.92;58.83;100128.59;6100619;23;20052;-79
2022/01/08 06:05:05;;;;;;;5.38;2.10;;;;;;;-3.00;59.13;100126.47;6125513;23;20025;-77
2022/01/08 06:07:54;;;;;;;3.83;1.70;;;;;;;-3.01;58.84;100129.81;6101638;23;20022;-79
2022/01/08 06:10:35;;;;;;;4.85;1.88;;;;;;;-3.09;58.98;100130.28;6126207;23;20435;-78
2022/01/08 06:13:04;;;;;;;5.50;2.30;;;;;;;-3.14;59.19;100130.84;6080759;23;20026;-78
2022/01/08 06:15:30;;;;;;;5.35;2.03;;;;;;;-3.07;59.45;100154.16;6100484;23;20013;-78
2022/01/08 06:17:56;;;;;;;5.00;1.80;;;;;;;-3.03;59.39;100156.06;6124371;23;20018;-78
2022/01/08 06:20:22;;;;;;;4.97;2.45;;;;;;;-3.12;59.35;100147.94;6125936;23;20021;-79
2022/01/08 06:22:47;;;;;;;7.68;4.03;;;;;;;-3.16;59.27;100147.72;6075761;23;20077;-80
2022/01/08 06:25:13;;;;;;;5.25;2.25;;;;;;;-3.08;59.28;100170.22;6099607;23;20036;-76
2022/01/08 06:27:42;;;;;;;4.68;2.53;;;;;;;-3.31;59.33;100135.03;6101416;23;20460;-79
2022/01/08 06:30:08;;;;;;;5.32;1.90;;;;;;;-3.03;59.37;100168.78;6125263;23;20026;-80
2022/01/08 06:32:34;;;;;;;4.90;1.88;;;;;;;-3.07;59.34;100161.78;6100394;23;20024;-80
2022/01/08 06:35:01;;;;;;;7.05;2.10;;;;;;;-2.94;59.32;100183.66;6106583;23;20048;-76
2022/01/08 06:37:28;;;;;;;5.25;2.13;;;;;;;-3.07;59.80;100154.16;6142164;23;20004;-75
2022/01/08 06:40:00;;;;;;;4.35;2.10;;;;;;;-2.90;59.42;100161.78;6114680;23;20022;-76
2022/01/08 06:42:28;;;;;;;3.65;1.88;;;;;;;-3.05;58.97;100147.47;6111032;23;20073;-75
2022/01/08 06:44:54;;;;;;;4.75;1.92;;;;;;;-2.92;59.43;100171.00;6104173;23;20077;-76
2022/01/08 06:47:20;;;;;;;7.38;1.70;;;;;;;-2.97;59.42;100185.16;6127837;23;20283;-79
2022/01/08 06:49:46;;;;;;;5.45;1.67;;;;;;;-3.14;59.80;100161.41;6100783;23;20024;-78
2022/01/08 06:52:12;;;;;;;5.72;2.03;;;;;;;-2.90;59.40;100217.81;6099802;23;20038;-75
2022/01/08 06:54:41;;;;;;;2.88;1.55;;;;;;;-3.18;59.33;100171.41;6124956;23;20105;-80
2022/01/08 06:57:06;;;;;;;4.70;1.90;;;;;;;-3.16;60.17;100183.34;6126042;23;20390;-77
2022/01/08 06:59:32;;;;;;;3.88;1.65;;;;;;;-2.98;59.73;100229.28;6124787;23;20042;-76
2022/01/08 07:01:58;;;;;;;3.03;1.58;;;;;;;-2.97;59.96;100219.16;6075300;23;20121;-77
2022/01/08 07:04:24;;;;;;;4.07;1.60;;;;;;;-2.77;60.17;100224.41;6098429;23;20480;-78
2022/01/08 07:06:50;;;;;;;4.22;1.23;;;;;;;-2.64;60.21;100201.31;6125049;23;20053;-81
2022/01/08 07:09:15;;;;;;;3.78;1.35;;;;;;;-2.51;59.85;100196.84;6099723;23;20065;-77
2022/01/08 07:11:44;;;;;;;3.00;1.08;;;;;;;-2.53;60.12;100171.25;6125209;23;20020;-76
2022/01/08 07:14:09;;;;;;;1.88;0.93;;;;;;;-2.16;60.32;100206.25;6099496;23;20109;-76
2022/01/08 07:16:38;;;;;;;1.33;0.98;;;;;;;-2.10;60.13;100199.69;6100978;23;20041;-78
2022/01/08 07:19:04;;;;;;;1.40;1.13;;;;;;;-2.02;59.82;100206.03;6101241;23;20040;-79
2022/01/08 07:21:30;;;;;;;1.55;0.82;;;;;;;-1.91;59.51;100207.44;6125507;23;20022;-76
2022/01/08 07:23:56;;;;;;;1.38;0.82;;;;;;;-1.68;59.56;100221.28;6127533;23;20025;-80
2022/01/08 07:26:21;;;;;;;2.65;1.08;;;;;;;-1.60;58.97;100228.44;6125527;23;20026;-79
2022/01/08 07:28:47;;;;;;;2.83;1.08;;;;;;;-1.52;59.10;100229.66;6101776;23;20041;-79
2022/01/08 07:31:16;;;;;;;2.22;1.58;;;;;;;-2.44;58.73;100051.06;6101239;23;20022;-82
2022/01/08 07:33:42;;;;;;;2.63;1.50;;;;;;;-1.48;58.66;100216.22;6125975;23;20025;-78
2022/01/08 07:36:12;;;;;;;2.85;1.42;;;;;;;-1.46;58.93;100226.53;6127015;23;20017;-82
2022/01/08 07:38:37;;;;;;;1.83;1.20;;;;;;;-1.44;58.60;100235.13;6078437;23;20030;-80
2022/01/08 07:41:03;;;;;;;4.70;1.75;;;;;;;-1.58;58.06;100198.75;6126406;23;20485;-78
2022/01/08 07:43:42;;;;;;;2.95;1.35;;;;;;;-1.99;58.89;100107.59;6133319;23;20119;-76
2022/01/08 07:46:08;;;;;;;1.70;1.20;;;;;;;-1.23;58.04;100230.13;6133103;23;20028;-76
2022/01/08 07:48:34;;;;;;;2.33;1.40;;;;;;;-1.12;58.49;100235.72;6143692;23;20001;-78
2022/01/08 07:51:00;;;;;;;1.88;1.23;;;;;;;-1.36;57.95;100198.03;6105504;23;20021;-79
2022/01/08 07:53:26;;;;;;;4.88;1.77;;;;;;;-0.92;57.83;100257.94;6076210;23;20437;-79
2022/01/08 07:55:52;;;;;;;6.20;2.03;;;;;;;-0.91;57.11;100243.50;6125981;23;20032;-78
2022/01/08 07:58:20;;;;;;;5.10;1.85;;;;;;;-0.86;57.95;100256.47;6081859;23;20082;-76
2022/01/08 08:00:50;;;;;;;2.60;1.73;;;;;;;-0.64;57.49;100255.72;6127300;23;20460;-78
2022/01/08 08:03:17;;;;;;;4.43;1.73;;;;;;;-0.57;57.51;100244.97;6099165;23;20017;-78
2022/01/08 08:05:51;;;;;;;4.15;1.70;;;;;;;-0.32;57.32;100240.91;6076411;23;20056;-78
2022/01/08 08:08:19;;;;;;;3.03;1.80;;;;;;;0.09;56.45;100266.47;6126004;23;20026;-77
2022/01/08 08:10:50;;;;;;;4.15;1.50;;;;;;;0.30;56.31;100256.19;6124562;23;20053;-78
2022/01/08 08:13:17;;;;;;;5.22;1.70;;;;;;;0.63;55.65;100248.13;6124762;23;20021;-78
2022/01/08 08:15:43;;;;;;;2.88;1.42;;;;;;;1.57;56.59;100266.03;6123965;23;20092;-77
2022/01/08 08:18:09;;;;;;;3.25;2.00;;;;;;;3.33;55.85;100256.09;6123019;23;20041;-74
2022/01/08 08:20:35;;;;;;;3.78;1.70;;;;;;;4.80;54.80;100241.69;6074056;23;20452;-76
2022/01/08 08:23:01;;;;;;;3.72;1.77;;;;;;;6.51;52.49;100243.06;6099322;23;20095;-77
2022/01/08 08:25:27;;;;;;;3.35;1.90;;;;;;;7.97;52.08;100231.81;6124405;23;20018;-74
2022/01/08 08:27:52;;;;;;;3.17;1.60;;;;;;;9.29;49.56;100235.22;6127178;23;20025;-77
2022/01/08 08:30:19;;;;;;;4.72;1.75;;;;;;;10.45;48.18;100232.78;6123950;23;20078;-78
2022/01/08 08:32:44;;;;;;;3.35;1.83;;;;;;;11.49;44.76;100234.16;6100207;23;20022;-77
2022/01/08 08:35:10;;;;;;;4.55;2.00;;;;;;;12.07;43.11;100221.59;6125316;23;20022;-76
2022/01/08 08:37:37;;;;;;;3.35;1.88;;;;;;;12.69;41.86;100215.81;6125917;23;20014;-76
2022/01/08 08:40:04;;;;;;;4.18;2.72;;;;;;;11.81;39.68;100214.81;6126447;23;20068;-77
2022/01/08 08:42:30;;;;;;;3.03;1.80;;;;;;;9.93;39.50;100216.28;6125013;23;20017;-75
2022/01/08 08:44:59;;;;;;;2.22;1.77;;;;;;;8.73;39.93;100259.19;6099801;23;20566;-78
2022/01/08 08:47:29;;;;;;;3.67;2.20;;;;;;;7.37;40.50;100251.09;6101564;23;20018;-75
2022/01/08 08:49:55;;;;;;;3.05;1.63;;;;;;;6.63;40.74;100255.28;6125268;23;20029;-76
2022/01/08 08:52:23;;;;;;;3.08;1.70;;;;;;;6.58;41.32;100251.78;6129602;23;20021;-78
2022/01/08 08:54:48;;;;;;;3.63;1.70;;;;;;;5.92;41.40;100239.53;6103784;23;20391;-78
2022/01/08 08:57:25;;;;;;;3.83;1.77;;;;;;;7.16;42.00;100253.41;6109719;23;20013;-77
2022/01/08 08:59:51;;;;;;;3.28;1.40;;;;;;;7.15;40.72;100233.56;6096180;23;20027;-77
2022/01/08 09:02:19;;;;;;;2.47;1.42;;;;;;;7.66;40.17;100254.84;6116074;23;20018;-78
2022/01/08 09:04:47;;;;;;;4.20;1.50;;;;;;;8.57;40.98;100262.56;6119690;23;20024;-76
2022/01/08 09:07:17;;;;;;;2.30;1.50;;;;;;;8.76;39.79;100247.09;6136618;23;20025;-77
2022/01/08 09:09:45;;;;;;;2.30;1.48;;;;;;;8.79;39.41;100249.72;6136679;23;20045;-74
2022/01/08 09:12:15;;;;;;;3.67;1.88;;;;;;;9.39;38.69;100256.88;6113802;23;20104;-79
2022/01/08 09:14:42;;;;;;;3.08;1.83;;;;;;;8.80;38.08;100233.28;6086982;23;20021;-78
2022/01/08 09:17:08;;;;;;;2.83;1.67;;;;;;;8.69;37.38;100270.44;6083365;23;20014;-78
2022/01/08 09:19:35;;;;;;;2.40;1.20;;;;;;;7.66;37.33;100258.31;6105754;23;20018;-79
2022/01/08 09:22:02;;;;;;;2.78;1.55;;;;;;;6.59;38.29;100290.59;6086872;23;20049;-77
2022/01/08 09:24:32;;;;;;;4.38;1.75;;;;;;;5.35;38.85;100301.31;6112695;23;20566;-77
2022/01/08 09:26:59;;;;;;;3.08;1.70;;;;;;;4.16;39.08;100303.78;6138123;23;20018;-77
2022/01/08 09:29:25;;;;;;;4.63;1.80;;;;;;;3.43;40.24;100315.56;6114836;23;20033;-80
2022/01/08 09:31:54;;;;;;;4.68;2.00;;;;;;;2.92;41.26;100314.09;6115352;23;20029;-77
2022/01/08 09:34:23;;;;;;;4.57;1.95;;;;;;;2.83;42.00;100312.09;6140730;23;20038;-77
2022/01/08 09:36:49;;;;;;;4.07;2.28;;;;;;;2.54;42.94;100228.94;6140172;23;20125;-78
2022/01/08 09:39:15;;;;;;;5.63;1.80;;;;;;;3.04;42.20;100321.31;6114055;23;20041;-81
2022/01/08 09:41:41;;;;;;;2.90;1.63;;;;;;;2.86;42.60;100308.75;6068143;23;20082;-79
2022/01/08 09:44:11;;;;;;;2.78;1.40;;;;;;;2.36;42.72;100284.06;6124443;23;20024;-78
2022/01/08 09:46:37;;;;;;;2.25;1.50;;;;;;;2.08;42.74;100296.03;6125248;23;20037;-79
2022/01/08 09:49:05;;;;;;;6.65;1.85;;;;;;;1.76;42.67;100293.22;6144152;23;20018;-77
2022/01/08 09:51:31;;;;;;;4.68;2.00;;;;;;;1.57;43.90;100316.50;6150541;23;20017;-80
2022/01/08 09:53:57;;;;;;;3.92;1.77;;;;;;;1.27;44.37;100329.94;6100805;23;20006;-80
2022/01/08 09:56:25;;;;;;;3.90;2.00;;;;;;;1.18;44.84;100351.84;6149382;23;20004;-80
2022/01/08 09:58:53;;;;;;;5.70;2.10;;;;;;;0.94;45.22;100350.91;6139194;23;20021;-80
2022/01/08 10:01:26;;;;;;;6.60;1.88;;;;;;;0.82;45.64;100347.03;6083315;23;20364;-81
2022/01/08 10:03:59;;;;;;;3.30;1.75;;;;;;;0.17;45.35;100283.00;6132748;23;20025;-81
2022/01/08 10:06:40;;;;;;;2.67;1.50;;;;;;;-0.85;46.16;100166.22;6134946;23;20018;-79
2022/01/08 10:09:20;;;;;;;2.17;1.60;;;;;;;-1.42;46.20;100154.34;6121183;23;20026;-79
2022/01/08 10:11:49;;;;;;;3.50;1.58;;;;;;;-0.53;46.97;100358.44;6141155;23;20417;-76
2022/01/08 10:14:28;;;;;;;2.83;1.83;;;;;;;-1.32;47.57;100243.34;6131447;23;20077;-80
2022/01/08 10:17:15;;;;;;;3.47;1.60;;;;;;;-1.85;47.87;100150.72;6088361;23;20098;-80
2022/01/08 10:19:42;;;;;;;3.28;1.85;;;;;;;-0.95;48.72;100333.59;6104977;23;20026;-79
2022/01/08 10:22:19;;;;;;;4.32;2.30;;;;;;;-0.80;48.86;100341.94;6129987;23;20140;-79
2022/01/08 10:24:45;;;;;;;4.65;1.90;;;;;;;-1.22;48.44;100299.16;6131762;23;20036;-79
2022/01/08 10:27:11;;;;;;;3.10;2.05;;;;;;;-1.11;48.63;100317.56;6105798;23;20089;-77
2022/01/08 10:29:37;;;;;;;3.92;2.20;;;;;;;-1.64;48.76;100258.00;6104236;23;20097;-80
2022/01/08 10:32:07;;;;;;;3.47;1.80;;;;;;;-1.28;49.49;100298.88;6107668;23;20044;-82
2022/01/08 10:34:34;;;;;;;5.70;2.30;;;;;;;-1.10;49.62;100338.84;6129969;23;20458;-81
2022/01/08 10:37:07;;;;;;;4.85;1.73;;;;;;;-1.28;50.21;100265.69;6080242;23;20073;-82
2022/01/08 10:39:38;;;;;;;4.25;1.90;;;;;;;-1.13;49.32;100275.72;6107239;23;20585;-81
2022/01/08 10:42:16;;;;;;;5.40;2.30;;;;;;;-0.91;49.63;100312.47;6104202;23;20018;-82
2022/01/08 10:44:46;;;;;;;5.53;2.33;;;;;;;-0.73;50.23;100347.34;6136359;23;20018;-82
2022/01/08 10:47:19;;;;;;;4.82;2.45;;;;;;;-0.71;50.00;100364.50;6082865;23;20013;-81
2022/01/08 10:50:02;;;;;;;3.50;2.10;;;;;;;-0.61;49.59;100392.25;6082058;23;20058;-80
2022/01/08 10:52:46;;;;;;;3.60;1.95;;;;;;;-1.01;50.03;100346.06;6083536;23;20013;-81
2022/01/08 10:55:16;;;;;;;3.38;2.03;;;;;;;-1.59;50.79;100289.75;6138869;23;20097;-78
2022/01/08 10:58:06;;;;;;;3.40;2.07;;;;;;;-1.84;50.49;100241.75;6132423;23;20024;-81
2022/01/08 11:00:38;;;;;;;4.07;2.00;;;;;;;-0.88;50.81;100396.06;6062756;23;20090;-81
2022/01/08 11:03:08;;;;;;;3.83;1.95;;;;;;;-2.33;50.58;100196.91;6089844;23;20018;-78
2022/01/08 11:06:00;;;;;;;3.97;1.90;;;;;;;-1.32;50.64;100365.91;6139614;23;20013;-81
2022/01/08 11:08:26;;;;;;;2.33;1.73;;;;;;;-1.24;51.13;100396.94;6082656;23;20026;-82
2022/01/08 11:10:55;;;;;;;3.72;1.95;;;;;;;-1.69;51.13;100315.66;6103529;23;20022;-81
2022/01/08 11:13:22;;;;;;;4.60;2.22;;;;;;;-1.98;51.13;100258.94;6125124;23;20040;-80
2022/01/08 11:15:51;;;;;;;5.35;2.65;;;;;;;-1.48;51.58;100366.84;6104390;23;20046;-81
2022/01/08 11:18:23;;;;;;;2.97;1.95;;;;;;;-1.05;51.53;100401.25;6112127;23;20006;-79
2022/01/08 11:20:51;;;;;;;4.45;2.13;;;;;;;-0.99;51.74;100398.13;6112697;23;20046;-79
2022/01/08 11:23:24;;;;;;;3.58;2.00;;;;;;;-1.44;51.85;100299.81;6101299;23;20042;-83
2022/01/08 11:25:51;;;;;;;4.85;2.15;;;;;;;-0.92;52.13;100393.38;6102014;23;20014;-79
2022/01/08 11:28:19;;;;;;;10.90;2.50;;;;;;;-0.92;52.08;100372.91;6101084;23;20033;-81
2022/01/08 11:30:58;;;;;;;5.60;2.22;;;;;;;-1.17;51.61;100352.13;6098288;23;20044;-83
2022/01/08 11:33:28;;;;;;;5.13;2.30;;;;;;;-1.17;52.16;100376.00;6072447;23;20028;-79
2022/01/08 11:35:56;;;;;;;4.32;2.30;;;;;;;-1.16;52.05;100407.50;6097767;23;20077;-83
2022/01/08 11:38:26;;;;;;;4.90;2.55;;;;;;;-1.33;51.94;100406.72;6100070;23;20056;-82
2022/01/08 11:40:53;;;;;;;4.95;2.65;;;;;;;-1.55;52.26;100396.31;6101788;23;20018;-82
2022/01/08 11:43:21;;;;;;;4.90;2.67;;;;;;;-1.61;52.54;100424.06;6099486;23;20077;-81
2022/01/08 11:46:05;;;;;;;5.95;3.03;;;;;;;-1.87;52.43;100381.94;6101520;23;20018;-81
2022/01/08 11:48:40;;;;;;;4.95;2.83;;;;;;;-1.73;52.96;100433.69;6099076;23;20023;-80
2022/01/08 11:51:06;;;;;;;6.18;3.10;;;;;;;-1.74;52.84;100430.22;6074304;23;20022;-80
2022/01/08 11:53:44;;;;;;;5.97;3.28;;;;;;;-1.81;53.21;100443.50;6098832;23;20045;-81
2022/01/08 11:56:38;;;;;;;8.48;3.67;;;;;;;-2.36;52.93;100390.50;6074125;23;20122;-80